Time;durP1;ratioP1;P1;durP2;ratioP2;P2;SDS_P1;SDS_P2;PMS_P1;PMS_P2;Temp;Humidity;BMP_temperature;BMP_pressure;BME280_temperature;BME280_humidity;BME280_pressure;Samples;Min_cycle;Max_cycle;Signal;HPM_P1;HPM_P2
2022/07/06 00:00:59;;;;;;;;;3.00;3.00;;;;;29.11;30.94;102185.81;5092965;27;45275;-82
2022/07/06 00:03:25;;;;;;;;;3.25;2.75;;;;;29.16;30.97;102177.91;5099831;27;45370;-82
2022/07/06 00:05:51;;;;;;;;;3.75;3.00;;;;;29.17;31.02;102194.03;5100243;27;45511;-82
2022/07/06 00:08:16;;;;;;;;;4.00;4.00;;;;;29.09;31.18;102183.25;5097907;27;46275;-82
2022/07/06 00:10:41;;;;;;;;;4.00;2.50;;;;;29.11;31.38;102185.81;5101252;27;45406;-82
2022/07/06 00:13:07;;;;;;;;;6.00;3.25;;;;;29.09;31.50;102185.13;5101375;27;45782;-82
2022/07/06 00:15:32;;;;;;;;;2.50;2.25;;;;;28.99;31.30;102178.13;5082915;27;45630;-82
2022/07/06 00:17:57;;;;;;;;;3.00;3.00;;;;;28.92;31.48;102177.19;5101461;27;46309;-82
2022/07/06 00:20:23;;;;;;;;;6.75;4.50;;;;;28.89;31.92;102176.72;5100991;27;45315;-83
2022/07/06 00:22:48;;;;;;;;;3.25;2.75;;;;;28.98;31.85;102175.59;5100112;27;45238;-83
2022/07/06 00:25:13;;;;;;;;;3.25;3.00;;;;;29.00;31.34;102171.66;5082982;27;45504;-82
2022/07/06 00:27:39;;;;;;;;;2.25;2.25;;;;;28.96;31.67;102167.59;5084475;27;47165;-82
2022/07/06 00:30:05;;;;;;;;;2.75;2.75;;;;;28.95;31.55;102182.22;5102747;27;45389;-82
2022/07/06 00:32:30;;;;;;;;;6.00;3.75;;;;;28.85;32.12;102173.56;5103958;27;45397;-82
2022/07/06 00:34:55;;;;;;;;;2.50;2.50;;;;;28.77;32.29;102180.97;5102477;27;45482;-82
2022/07/06 00:37:21;;;;;;;;;4.75;4.75;;;;;28.85;32.14;102181.72;5103740;27;45985;-82
2022/07/06 00:39:46;;;;;;;;;4.75;3.00;;;;;28.75;32.29;102175.69;5104343;27;46783;-83
2022/07/06 00:42:11;;;;;;;;;4.00;4.00;;;;;28.73;32.13;102172.31;5084822;27;45566;-82
2022/07/06 00:44:37;;;;;;;;;6.00;4.25;;;;;28.69;32.19;102173.69;5100182;27;45246;-82
2022/07/06 00:47:02;;;;;;;;;5.50;4.00;;;;;28.90;32.49;102172.97;5099705;27;46414;-82
2022/07/06 00:52:12;;;;;;;;;3.75;3.75;;;;;28.71;32.23;102171.63;5101412;27;45456;-82
2022/07/06 00:54:40;;;;;;;;;5.50;4.25;;;;;28.66;32.70;102176.81;5101415;27;45683;-83
2022/07/06 00:57:06;;;;;;;;;3.75;3.75;;;;;28.74;32.59;102165.84;5101020;27;45742;-82
2022/07/06 00:59:31;;;;;;;;;3.00;3.00;;;;;28.77;32.57;102164.66;5100899;27;45335;-82
2022/07/06 01:01:57;;;;;;;;;5.00;5.00;;;;;28.78;32.85;102171.75;5100887;27;45225;-82
2022/07/06 01:04:23;;;;;;;;;6.25;4.50;;;;;28.74;33.06;102176.72;5100659;27;45231;-82
2022/07/06 01:06:48;;;;;;;;;5.00;5.00;;;;;28.52;32.91;102169.47;5100846;27;45160;-82
2022/07/06 01:09:14;;;;;;;;;3.00;3.00;;;;;28.52;32.68;102167.59;5082116;27;45483;-82
2022/07/06 01:11:40;;;;;;;;;5.00;5.00;;;;;28.42;32.89;102175.19;5082565;27;45345;-82
2022/07/06 01:14:06;;;;;;;;;4.00;4.00;;;;;28.44;32.64;102172.28;5100475;27;45397;-82
2022/07/06 01:16:32;;;;;;;;;4.25;3.75;;;;;28.55;33.26;102177.28;5082367;27;47603;-82
2022/07/06 01:18:57;;;;;;;;;5.00;3.75;;;;;28.48;32.88;102176.34;5100632;27;45915;-82
2022/07/06 01:21:23;;;;;;;;;5.00;4.00;;;;;28.62;33.24;102175.47;5100603;27;45557;-83
2022/07/06 01:23:48;;;;;;;;;6.50;4.00;;;;;28.60;32.97;102186.53;5082641;27;45502;-83
2022/07/06 01:26:19;;;;;;;;;6.00;4.00;;;;;28.55;33.21;102183.56;5082446;27;48032;-82
2022/07/06 01:28:46;;;;;;;;;4.50;4.00;;;;;28.62;33.34;102189.06;5100949;27;45488;-83
2022/07/06 01:31:25;;;;;;;;;4.25;4.00;;;;;28.57;32.90;102183.38;5082413;27;45454;-82
2022/07/06 01:33:52;;;;;;;;;4.00;4.00;;;;;28.55;33.28;102174.56;5101478;27;45309;-82
2022/07/06 01:36:17;;;;;;;;;5.50;4.00;;;;;28.47;33.21;102175.50;5103905;27;45354;-82
2022/07/06 01:38:51;;;;;;;;;5.50;4.25;;;;;28.39;33.17;102163.88;5100521;27;45470;-82
2022/07/06 01:41:18;;;;;;;;;6.25;4.00;;;;;28.39;33.55;102170.16;5089510;27;45358;-82
2022/07/06 01:43:44;;;;;;;;;5.75;3.00;;;;;28.39;33.46;102178.28;5102880;27;45574;-82
2022/07/06 01:46:10;;;;;;;;;4.75;3.00;;;;;28.31;32.96;102178.38;5104402;27;45580;-82
2022/07/06 01:48:35;;;;;;;;;3.00;3.00;;;;;28.29;33.95;102183.16;5104238;27;45369;-81
2022/07/06 01:51:01;;;;;;;;;3.50;2.75;;;;;28.24;33.52;102172.81;5104709;27;45528;-82
2022/07/06 01:53:26;;;;;;;;;6.00;4.00;;;;;28.29;33.31;102175.84;5105756;27;45384;-82
2022/07/06 01:55:51;;;;;;;;;6.25;3.00;;;;;28.29;33.05;102177.72;5097844;27;46203;-82
2022/07/06 01:58:17;;;;;;;;;3.00;3.00;;;;;28.36;33.79;102180.53;5105492;27;45234;-82
2022/07/06 02:00:43;;;;;;;;;2.00;2.00;;;;;28.29;33.43;102177.72;5105442;27;45862;-82
2022/07/06 02:03:08;;;;;;;;;3.00;3.00;;;;;28.21;33.80;102175.94;5100476;27;48402;-83
2022/07/06 02:05:33;;;;;;;;;3.50;3.50;;;;;28.27;33.59;102175.19;5105312;27;45343;-82
2022/07/06 02:07:59;;;;;;;;;5.25;4.00;;;;;28.23;33.36;102165.69;5105095;27;45454;-82
2022/07/06 02:10:24;;;;;;;;;6.25;4.75;;;;;28.20;33.98;102179.66;5104730;27;45523;-82
2022/07/06 02:12:50;;;;;;;;;3.50;3.50;;;;;28.17;34.23;102176.47;5099184;27;45142;-82
2022/07/06 02:15:15;;;;;;;;;4.00;4.00;;;;;28.15;33.88;102175.75;5103646;27;45570;-82
2022/07/06 02:17:40;;;;;;;;;4.50;3.00;;;;;28.11;34.49;102172.59;5103535;27;45309;-82
2022/07/06 02:20:06;;;;;;;;;3.75;3.75;;;;;28.14;33.81;102163.22;5103564;27;45413;-82
2022/07/06 02:22:32;;;;;;;;;5.50;4.00;;;;;28.18;33.79;102165.41;5103645;27;45479;-81
2022/07/06 02:24:57;;;;;;;;;5.00;5.00;;;;;28.05;33.87;102158.88;5103934;27;45385;-82
2022/07/06 02:27:23;;;;;;;;;4.25;4.25;;;;;27.97;34.33;102170.66;5103383;27;45338;-82
2022/07/06 02:29:48;;;;;;;;;3.00;3.00;;;;;27.95;34.26;102169.19;5085365;27;45319;-82
2022/07/06 02:32:14;;;;;;;;;6.75;4.75;;;;;27.87;34.11;102157.34;5085363;27;45374;-82
2022/07/06 02:34:39;;;;;;;;;7.50;5.50;;;;;27.84;34.47;102156.88;5103205;27;45376;-82
2022/07/06 02:37:04;;;;;;;;;3.50;3.50;;;;;27.83;34.76;102155.19;5103407;27;45412;-81
2022/07/06 02:39:30;;;;;;;;;2.75;2.75;;;;;27.93;34.53;102153.06;5084828;27;45458;-82
2022/07/06 02:41:56;;;;;;;;;5.50;4.75;;;;;28.01;34.30;102144.84;5103455;27;45358;-81
2022/07/06 02:44:21;;;;;;;;;5.00;4.00;;;;;27.97;34.08;102143.50;5103148;27;46498;-82
2022/07/06 02:46:46;;;;;;;;;4.25;4.00;;;;;27.99;34.30;102163.19;5101692;27;45483;-82
2022/07/06 02:49:12;;;;;;;;;3.25;3.25;;;;;28.09;34.14;102158.34;5103170;27;45524;-82
2022/07/06 02:51:37;;;;;;;;;4.75;4.00;;;;;27.99;34.45;102156.91;5084229;27;45977;-82
2022/07/06 02:54:02;;;;;;;;;5.00;4.75;;;;;28.13;34.00;102164.28;5103057;27;45401;-82
2022/07/06 02:56:28;;;;;;;;;4.75;4.75;;;;;28.00;34.40;102164.88;5103472;27;45345;-82
2022/07/06 02:58:53;;;;;;;;;3.75;3.75;;;;;27.77;34.47;102161.34;5106024;27;45770;-82
2022/07/06 03:01:19;;;;;;;;;4.00;4.00;;;;;27.83;34.81;102172.31;5092114;27;46097;-82
2022/07/06 03:03:44;;;;;;;;;3.00;3.00;;;;;27.78;34.12;102173.88;5085223;27;46200;-82
2022/07/06 03:06:09;;;;;;;;;5.75;4.50;;;;;27.78;34.51;102173.88;5105906;27;45351;-83
2022/07/06 03:08:35;;;;;;;;;3.25;3.00;;;;;27.59;34.73;102174.38;5105772;27;45289;-82
2022/07/06 03:11:00;;;;;;;;;5.00;5.00;;;;;27.48;34.79;102178.31;5104667;27;45298;-82
2022/07/06 03:13:27;;;;;;;;;5.00;4.00;;;;;27.56;34.62;102172.88;5104044;27;46163;-82
2022/07/06 03:15:52;;;;;;;;;5.00;3.75;;;;;27.58;35.05;102180.84;5104031;27;45229;-82
2022/07/06 03:18:17;;;;;;;;;5.75;4.50;;;;;27.57;35.02;102180.00;5103919;27;45381;-82
2022/07/06 03:20:43;;;;;;;;;4.50;4.00;;;;;27.51;34.91;102173.38;5103271;27;45264;-82
2022/07/06 03:23:08;;;;;;;;;4.50;3.50;;;;;27.51;35.43;102181.50;5084024;27;47051;-81
2022/07/06 03:25:34;;;;;;;;;7.25;6.50;;;;;27.65;34.69;102181.81;5102557;27;45535;-81
2022/07/06 03:27:59;;;;;;;;;5.00;5.00;;;;;27.48;35.11;102179.16;5102609;27;45345;-82
2022/07/06 03:30:24;;;;;;;;;3.75;3.75;;;;;27.63;34.84;102176.53;5102296;27;45309;-82
2022/07/06 03:32:50;;;;;;;;;4.00;4.00;;;;;27.68;34.65;102181.44;5102325;27;46540;-82
2022/07/06 03:35:15;;;;;;;;;5.25;4.00;;;;;27.53;35.03;102179.47;5083740;27;45420;-82
2022/07/06 03:37:40;;;;;;;;;5.00;3.75;;;;;27.43;35.72;102178.84;5101919;27;45401;-83
2022/07/06 03:40:06;;;;;;;;;4.00;4.00;;;;;27.58;35.26;102183.56;5102616;27;45351;-82
2022/07/06 03:42:32;;;;;;;;;6.25;5.00;;;;;27.62;34.75;102193.00;5083644;27;47027;-82
2022/07/06 03:44:57;;;;;;;;;7.00;4.75;;;;;27.61;34.77;102192.16;5100060;27;45317;-82
2022/07/06 03:47:23;;;;;;;;;7.75;3.75;;;;;27.42;35.03;102187.16;5100207;27;45288;-82
2022/07/06 03:49:48;;;;;;;;;8.75;5.50;;;;;27.34;35.34;102181.78;5083489;27;45476;-82
2022/07/06 03:52:13;;;;;;;;;4.75;3.25;;;;;27.38;35.18;102186.69;5101713;27;45416;-82
2022/07/06 03:54:39;;;;;;;;;3.50;3.00;;;;;27.34;35.83;102190.78;5102291;27;45444;-82
2022/07/06 03:57:04;;;;;;;;;5.75;4.75;;;;;27.31;35.72;102193.88;5101743;27;45541;-82
2022/07/06 03:59:30;;;;;;;;;6.75;5.00;;;;;27.29;35.14;102187.75;5083392;27;45477;-82
2022/07/06 04:01:55;;;;;;;;;6.50;4.75;;;;;27.37;34.88;102184.16;5083455;27;47915;-82
2022/07/06 04:04:20;;;;;;;;;8.25;4.00;;;;;27.36;35.39;102191.44;5083305;27;45300;-82
2022/07/06 04:06:46;;;;;;;;;6.00;4.75;;;;;27.38;35.26;102177.72;5102150;27;46109;-82
2022/07/06 04:09:11;;;;;;;;;5.50;3.50;;;;;27.43;35.16;102192.41;5078852;27;45656;-82
2022/07/06 04:11:36;;;;;;;;;5.75;4.25;;;;;27.71;35.05;102192.78;5084401;27;47575;-82
2022/07/06 04:14:02;;;;;;;;;5.00;5.00;;;;;27.56;34.74;102200.00;5102937;27;45321;-82
2022/07/06 04:16:27;;;;;;;;;5.75;5.25;;;;;27.66;34.70;102194.34;5103427;27;45519;-82
2022/07/06 04:18:52;;;;;;;;;9.00;5.25;;;;;27.59;35.30;102198.81;5084670;27;45571;-82
2022/07/06 04:21:18;;;;;;;;;5.75;5.50;;;;;27.55;35.23;102206.47;5102657;27;45354;-82
2022/07/06 04:23:43;;;;;;;;;9.00;6.00;;;;;27.50;35.02;102203.38;5084982;27;45948;-82
2022/07/06 04:26:09;;;;;;;;;5.00;5.00;;;;;27.49;35.42;102194.44;5102181;27;45542;-82
2022/07/06 04:28:34;;;;;;;;;6.50;5.50;;;;;27.54;35.37;102196.63;5101783;27;45255;-82
2022/07/06 04:31:00;;;;;;;;;4.25;4.25;;;;;27.49;35.67;102199.88;5101330;27;46604;-82
2022/07/06 04:33:25;;;;;;;;;9.50;5.75;;;;;27.48;35.39;102200.88;5101520;27;45392;-82
2022/07/06 04:35:50;;;;;;;;;7.75;5.25;;;;;27.44;34.88;102194.09;5082766;27;45649;-82
2022/07/06 04:38:16;;;;;;;;;5.75;5.00;;;;;27.27;35.71;102199.81;5101226;27;45314;-82
2022/07/06 04:40:41;;;;;;;;;4.50;4.50;;;;;27.22;35.85;102203.06;5076234;27;47530;-81
2022/07/06 04:43:07;;;;;;;;;5.75;4.50;;;;;27.34;35.49;102193.50;5101116;27;45398;-82
2022/07/06 04:45:32;;;;;;;;;5.75;5.75;;;;;27.59;35.02;102194.19;5083077;27;45485;-82
2022/07/06 04:47:58;;;;;;;;;5.00;4.50;;;;;27.66;34.69;102195.19;5101369;27;45385;-82
2022/07/06 04:50:23;;;;;;;;;7.25;5.75;;;;;27.79;35.06;102192.72;5100976;27;45341;-82
2022/07/06 04:52:48;;;;;;;;;7.25;5.00;;;;;27.48;35.12;102192.75;5101037;27;45435;-82
2022/07/06 04:55:14;;;;;;;;;5.50;4.50;;;;;27.39;35.25;102195.69;5101189;27;45176;-82
2022/07/06 04:57:40;;;;;;;;;7.00;6.50;;;;;27.44;35.28;102201.41;5082706;27;45571;-82
2022/07/06 05:00:06;;;;;;;;;5.50;5.25;;;;;27.46;35.18;102200.22;5100782;27;45505;-81
2022/07/06 05:02:32;;;;;;;;;4.50;4.50;;;;;27.45;35.45;102209.38;5081531;27;45443;-83
2022/07/06 05:04:57;;;;;;;;;9.00;6.00;;;;;27.47;35.19;102204.63;5101226;27;45227;-82
2022/07/06 05:07:27;;;;;;;;;5.25;5.25;;;;;27.36;35.69;102201.44;5100726;27;45184;-82
2022/07/06 05:09:53;;;;;;;;;4.00;3.75;;;;;27.31;35.56;102196.56;5081706;27;47038;-82
2022/07/06 05:12:18;;;;;;;;;5.50;4.25;;;;;27.37;35.48;102195.84;5101022;27;45395;-82
2022/07/06 05:14:44;;;;;;;;;6.00;5.00;;;;;27.29;35.63;102206.75;5082874;27;45299;-82
2022/07/06 05:17:09;;;;;;;;;7.00;4.75;;;;;27.23;35.94;102193.03;5102212;27;45294;-82
2022/07/06 05:19:34;;;;;;;;;7.75;5.25;;;;;27.30;35.31;102200.31;5102390;27;45501;-82
2022/07/06 05:22:00;;;;;;;;;7.75;6.00;;;;;27.49;35.23;102197.16;5083710;27;45837;-81
2022/07/06 05:24:25;;;;;;;;;6.25;5.00;;;;;27.51;34.83;102202.38;5085037;27;45179;-82
2022/07/06 05:26:50;;;;;;;;;6.25;5.25;;;;;27.69;34.99;102204.81;5084979;27;45267;-82
2022/07/06 05:29:16;;;;;;;;;6.75;5.75;;;;;27.26;35.50;102198.13;5102448;27;46564;-82
2022/07/06 05:31:41;;;;;;;;;7.00;5.00;;;;;27.51;35.33;102207.78;5103799;27;45360;-82
2022/07/06 05:34:06;;;;;;;;;5.25;5.25;;;;;27.61;35.25;102203.03;5105707;27;45294;-82
2022/07/06 05:36:32;;;;;;;;;8.00;4.50;;;;;27.60;35.10;102200.47;5105648;27;45508;-82
2022/07/06 05:38:57;;;;;;;;;6.00;6.00;;;;;27.12;36.20;102206.00;5083497;27;47873;-82
2022/07/06 05:41:23;;;;;;;;;7.00;4.75;;;;;27.11;36.18;102203.44;5100554;27;45240;-82
2022/07/06 05:43:48;;;;;;;;;6.50;4.25;;;;;27.08;35.74;102210.06;5082378;27;45357;-82
2022/07/06 05:46:13;;;;;;;;;5.00;4.50;;;;;27.05;35.60;102207.69;5093252;27;45215;-82
2022/07/06 05:51:23;;;;;;;;;11.50;6.25;;;;;27.37;35.94;102212.13;5100337;27;45287;-82
2022/07/06 05:53:48;;;;;;;;;7.50;3.00;;;;;27.68;35.24;102214.03;5101014;27;45754;-82
2022/07/06 05:56:14;;;;;;;;;6.00;5.00;;;;;27.14;36.08;102217.50;5101102;27;45316;-82
2022/07/06 05:58:39;;;;;;;;;7.00;6.00;;;;;27.97;34.89;102221.41;5082081;27;47063;-82
2022/07/06 06:01:07;;;;;;;;;6.50;5.25;;;;;28.09;34.40;102231.69;5100450;27;45364;-82
2022/07/06 06:03:32;;;;;;;;;6.75;6.00;;;;;27.75;34.69;102223.13;5081923;27;45405;-82
2022/07/06 06:05:58;;;;;;;;;9.00;6.25;;;;;27.43;34.60;102222.25;5081841;27;45655;-82
2022/07/06 06:08:23;;;;;;;;;7.75;5.25;;;;;27.37;35.31;102231.13;5081946;27;46578;-83
2022/07/06 06:10:49;;;;;;;;;7.25;5.75;;;;;27.50;34.68;102223.22;5093338;27;45445;-82
2022/07/06 06:13:14;;;;;;;;;7.75;5.75;;;;;27.57;34.45;102225.28;5082074;27;45437;-82
2022/07/06 06:15:39;;;;;;;;;5.25;5.25;;;;;27.66;34.37;102233.19;5100199;27;45411;-82
2022/07/06 06:18:05;;;;;;;;;7.50;4.00;;;;;27.50;34.63;102239.50;5100295;27;45291;-82
2022/07/06 06:20:30;;;;;;;;;7.00;4.00;;;;;27.66;34.43;102227.78;5103720;27;45152;-83
2022/07/06 06:22:57;;;;;;;;;7.50;4.75;;;;;27.74;34.26;102232.28;5086643;27;45427;-83
2022/07/06 06:25:34;;;;;;;;;4.00;4.00;;;;;27.81;33.71;102230.53;5086974;27;45449;-84
2022/07/06 06:28:00;;;;;;;;;7.00;5.50;;;;;27.96;33.98;102234.16;5075595;27;47028;-83
2022/07/06 06:30:26;;;;;;;;;7.75;5.75;;;;;28.06;33.86;102223.03;5086317;27;45362;-81
2022/07/06 06:32:52;;;;;;;;;7.00;5.50;;;;;28.31;33.21;102235.44;5104046;27;45412;-83
2022/07/06 06:35:17;;;;;;;;;9.00;6.00;;;;;28.12;33.76;102227.75;5103470;27;45384;-83
2022/07/06 06:37:42;;;;;;;;;7.25;5.50;;;;;27.81;33.13;102225.97;5103470;27;46110;-82
2022/07/06 06:40:09;;;;;;;;;5.00;4.25;;;;;27.72;33.30;102224.31;5100099;27;45443;-83
2022/07/06 06:42:37;;;;;;;;;6.25;6.00;;;;;27.69;33.54;102227.38;5087268;27;45352;-82
2022/07/06 06:45:04;;;;;;;;;5.50;5.00;;;;;28.00;33.23;102231.94;5094894;27;45454;-82
2022/07/06 06:47:30;;;;;;;;;5.75;3.75;;;;;27.64;33.86;102232.53;5084488;27;46406;-83
2022/07/06 06:49:55;;;;;;;;;5.50;4.00;;;;;27.68;33.86;102233.03;5102010;27;45438;-82
2022/07/06 06:52:20;;;;;;;;;7.75;4.75;;;;;27.91;33.29;102237.44;5102151;27;45862;-81
2022/07/06 06:54:46;;;;;;;;;4.50;4.50;;;;;27.78;33.26;102234.44;5100175;27;45552;-82
2022/07/06 06:57:11;;;;;;;;;5.00;5.00;;;;;27.95;33.38;102243.34;5084734;27;47237;-82
2022/07/06 06:59:37;;;;;;;;;5.00;5.00;;;;;27.95;33.32;102242.50;5090124;27;45452;-81
2022/07/06 07:02:02;;;;;;;;;3.75;3.75;;;;;28.02;32.68;102243.47;5068377;27;45344;-82
2022/07/06 07:04:30;;;;;;;;;5.00;4.00;;;;;27.91;32.83;102244.72;5088486;27;45727;-82
2022/07/06 07:06:55;;;;;;;;;3.75;3.50;;;;;28.08;32.95;102246.28;5083596;27;47079;-81
2022/07/06 07:09:21;;;;;;;;;5.00;5.00;;;;;27.96;32.84;102244.16;5097983;27;45539;-81
2022/07/06 07:11:46;;;;;;;;;5.50;5.00;;;;;27.88;33.03;102236.94;5101399;27;45447;-82
2022/07/06 07:14:12;;;;;;;;;6.50;4.00;;;;;28.24;32.79;102251.59;5101491;27;45563;-82
2022/07/06 07:16:37;;;;;;;;;6.75;5.25;;;;;28.41;32.84;102249.59;5101106;27;45348;-81
2022/07/06 07:19:02;;;;;;;;;5.75;5.25;;;;;28.90;32.53;102247.25;5100630;27;45473;-81
2022/07/06 07:21:28;;;;;;;;;4.00;3.25;;;;;31.23;31.58;102240.09;5101898;27;45492;-83
2022/07/06 07:23:53;;;;;;;;;6.00;6.00;;;;;34.92;29.41;102240.84;5083181;27;46130;-83
2022/07/06 07:26:18;;;;;;;;;6.00;6.00;;;;;38.01;26.21;102231.75;5102056;27;45415;-81
2022/07/06 07:28:44;;;;;;;;;6.75;6.00;;;;;40.35;25.46;102238.25;5083130;27;45596;-82
2022/07/06 07:31:09;;;;;;;;;6.00;5.00;;;;;42.49;24.12;102246.09;5101106;27;45487;-82
2022/07/06 07:33:34;;;;;;;;;6.00;5.50;;;;;44.33;21.42;102240.03;5101030;27;45473;-82
2022/07/06 07:36:00;;;;;;;;;6.25;3.00;;;;;45.98;18.56;102243.97;5099954;27;46584;-82
2022/07/06 07:38:25;;;;;;;;;6.75;4.25;;;;;47.39;17.79;102233.84;5101128;27;45381;-82
2022/07/06 07:40:53;;;;;;;;;5.25;4.75;;;;;48.72;16.19;102228.06;5082858;27;45441;-83
2022/07/06 07:43:18;;;;;;;;;5.25;5.25;;;;;49.44;15.91;102240.75;5082625;27;45566;-83
2022/07/06 07:45:43;;;;;;;;;4.25;4.25;;;;;50.66;15.29;102233.66;5082401;27;48210;-83
2022/07/06 07:48:09;;;;;;;;;4.50;3.75;;;;;50.74;15.18;102230.78;5071672;27;45462;-83
2022/07/06 07:50:35;;;;;;;;;6.00;4.25;;;;;51.81;13.26;102232.94;5075348;28;45486;-83
2022/07/06 07:53:01;;;;;;;;;5.25;5.25;;;;;52.42;13.88;102232.22;5096935;27;45366;-83
2022/07/06 07:55:26;;;;;;;;;5.75;4.00;;;;;52.96;13.08;102235.63;5082548;27;47007;-83
2022/07/06 07:57:51;;;;;;;;;2.75;2.75;;;;;53.42;13.20;102225.72;5100816;27;45620;-83
2022/07/06 08:00:17;;;;;;;;;5.75;5.75;;;;;54.04;12.66;102224.22;5100659;27;45354;-84
2022/07/06 08:02:42;;;;;;;;;4.75;4.00;;;;;54.60;11.94;102238.16;5097757;27;45625;-83
2022/07/06 08:05:08;;;;;;;;;5.50;5.50;;;;;54.57;11.21;102231.22;5098194;27;47022;-83
2022/07/06 08:07:33;;;;;;;;;7.50;5.00;;;;;54.91;10.76;102232.44;5084571;27;45390;-83
2022/07/06 08:09:59;;;;;;;;;4.50;4.50;;;;;55.05;10.63;102232.75;5103069;27;45438;-83
2022/07/06 08:12:24;;;;;;;;;4.50;4.50;;;;;55.33;10.22;102224.06;5105550;27;45398;-83
2022/07/06 08:14:49;;;;;;;;;7.25;5.00;;;;;55.64;10.94;102222.25;5101451;27;46481;-83
2022/07/06 08:17:17;;;;;;;;;7.00;4.75;;;;;56.35;10.86;102218.69;5082374;27;45648;-83
2022/07/06 08:19:43;;;;;;;;;5.00;5.00;;;;;56.90;10.28;102225.59;5100900;27;45523;-83
2022/07/06 08:22:09;;;;;;;;;6.50;4.50;;;;;57.53;9.58;102223.94;5082263;27;45572;-83
2022/07/06 08:24:34;;;;;;;;;5.25;4.00;;;;;57.64;8.41;102220.00;5079124;27;48209;-84
2022/07/06 08:27:00;;;;;;;;;5.75;4.75;;;;;57.56;9.73;102226.00;5078457;27;45290;-84
2022/07/06 08:29:26;;;;;;;;;4.75;4.25;;;;;57.68;9.22;102232.22;5080819;27;45499;-84
2022/07/06 08:31:51;;;;;;;;;4.25;4.25;;;;;57.38;9.14;102225.78;5092680;27;45640;-83
2022/07/06 08:34:17;;;;;;;;;8.50;6.25;;;;;57.31;9.00;102225.72;5081635;27;47834;-83
2022/07/06 08:36:42;;;;;;;;;6.50;6.50;;;;;57.33;9.77;102229.00;5082674;27;45836;-83
2022/07/06 08:39:08;;;;;;;;;9.75;4.50;;;;;57.47;9.32;102228.31;5082731;27;45405;-84
2022/07/06 08:41:36;;;;;;;;;6.75;5.00;;;;;57.75;8.65;102225.78;5082583;27;45421;-84
2022/07/06 08:44:02;;;;;;;;;6.00;5.00;;;;;57.63;8.87;102229.75;5081145;27;48183;-84
2022/07/06 08:46:29;;;;;;;;;5.25;5.25;;;;;57.97;9.50;102233.34;5081793;27;45730;-84
2022/07/06 08:48:56;;;;;;;;;7.50;5.00;;;;;58.76;9.26;102226.19;5100216;27;45511;-84
2022/07/06 08:51:22;;;;;;;;;5.75;3.75;;;;;59.33;8.73;102229.31;5100080;27;45620;-84
2022/07/06 08:53:49;;;;;;;;;5.50;5.25;;;;;59.69;8.71;102225.34;5098352;27;47185;-84
2022/07/06 08:56:16;;;;;;;;;9.00;4.00;;;;;60.32;8.70;102225.75;5080823;27;45469;-84
2022/07/06 08:58:41;;;;;;;;;6.75;4.50;;;;;60.18;7.34;102213.16;5100704;27;45436;-84
2022/07/06 09:01:10;;;;;;;;;5.00;4.00;;;;;59.59;8.18;102206.16;5081902;27;45500;-84
2022/07/06 09:03:35;;;;;;;;;6.00;5.00;;;;;59.84;7.45;102212.69;5079422;27;47393;-84
2022/07/06 09:06:02;;;;;;;;;4.25;3.50;;;;;59.97;7.42;102200.91;5099487;27;45326;-84
2022/07/06 09:08:31;;;;;;;;;4.75;3.50;;;;;59.76;7.59;102205.34;5100066;27;45341;-84
2022/07/06 09:10:57;;;;;;;;;8.75;5.50;;;;;60.10;8.22;102207.84;5082028;27;45505;-84
2022/07/06 09:13:23;;;;;;;;;6.00;4.50;;;;;60.42;6.73;102204.91;5094904;27;46872;-84
2022/07/06 09:15:48;;;;;;;;;5.25;3.75;;;;;60.49;7.77;102202.88;5099930;27;45478;-84
2022/07/06 09:18:14;;;;;;;;;3.00;3.00;;;;;60.30;7.64;102203.31;5099957;27;45373;-85
2022/07/06 09:20:43;;;;;;;;;3.25;3.00;;;;;60.00;7.19;102202.94;5081620;27;45296;-84
2022/07/06 09:23:08;;;;;;;;;5.25;5.00;;;;;58.90;7.90;102196.97;5098036;27;45926;-85
2022/07/06 09:25:35;;;;;;;;;4.00;3.00;;;;;58.16;7.49;102197.34;5099880;27;45354;-84
2022/07/06 09:28:01;;;;;;;;;4.50;3.25;;;;;59.00;8.51;102197.03;5100127;27;45444;-83
2022/07/06 09:30:28;;;;;;;;;5.25;3.75;;;;;59.87;8.03;102185.41;5100134;27;45503;-84
2022/07/06 09:32:56;;;;;;;;;2.75;2.50;;;;;60.56;7.59;102188.56;5099906;27;46294;-84
2022/07/06 09:35:27;;;;;;;;;4.50;4.50;;;;;61.22;6.66;102188.69;5100378;27;45492;-84
2022/07/06 09:38:07;;;;;;;;;3.25;3.25;;;;;61.28;7.05;102186.22;5095280;27;45590;-84
2022/07/06 09:40:39;;;;;;;;;1.50;1.50;;;;;61.98;7.13;102190.59;5048198;27;46042;-85
2022/07/06 09:43:14;;;;;;;;;3.25;3.00;;;;;62.71;6.83;102178.78;5065563;27;47482;-85
2022/07/06 09:45:45;;;;;;;;;5.50;3.25;;;;;63.13;6.73;102191.69;5089187;27;45438;-85
2022/07/06 09:48:31;;;;;;;;;2.50;2.50;;;;;63.44;6.03;102188.78;5095692;27;45417;-85
2022/07/06 09:50:59;;;;;;;;;3.00;3.00;;;;;61.45;6.48;102188.16;5091139;27;45999;-86
2022/07/06 09:53:26;;;;;;;;;4.00;4.00;;;;;61.00;6.90;102190.06;5061732;27;48188;-86
2022/07/06 09:55:54;;;;;;;;;6.75;4.25;;;;;60.79;6.80;102190.97;5083424;27;45354;-86
2022/07/06 09:58:21;;;;;;;;;3.50;3.50;;;;;60.98;6.44;102187.59;5087467;27;45837;-86
2022/07/06 10:00:47;;;;;;;;;4.00;2.50;;;;;61.41;6.86;102192.28;5086069;27;45636;-86
2022/07/06 10:03:15;;;;;;;;;3.25;3.25;;;;;61.75;6.46;102198.13;5065434;27;47217;-86
2022/07/06 10:05:43;;;;;;;;;3.25;3.25;;;;;62.15;6.62;102191.69;5080683;27;45552;-86
2022/07/06 10:08:09;;;;;;;;;5.75;2.75;;;;;62.91;6.52;102192.41;5068268;27;45429;-87
2022/07/06 10:10:36;;;;;;;;;4.00;2.50;;;;;63.05;5.44;102195.09;5070149;27;46558;-87
2022/07/06 10:13:03;;;;;;;;;5.00;4.25;;;;;61.89;6.13;102200.91;5059187;27;47302;-85
2022/07/06 10:15:33;;;;;;;;;4.50;4.25;;;;;59.19;7.04;102187.34;5072028;27;46096;-86
2022/07/06 10:18:01;;;;;;;;;5.50;3.75;;;;;59.40;7.49;102187.38;5056828;27;45985;-85
2022/07/06 10:20:36;;;;;;;;;2.25;2.25;;;;;59.84;7.12;102189.88;5086566;27;45607;-86
2022/07/06 10:23:03;;;;;;;;;4.50;4.50;;;;;60.43;6.50;102178.81;5074275;27;46273;-85
2022/07/06 10:25:29;;;;;;;;;5.75;2.75;;;;;60.90;6.83;102177.44;5074387;27;45710;-85
2022/07/06 10:27:55;;;;;;;;;5.00;3.00;;;;;61.17;6.78;102189.16;5062107;27;45753;-86
2022/07/06 10:30:22;;;;;;;;;6.50;4.00;;;;;60.29;6.52;102181.69;5078763;27;45765;-85
2022/07/06 10:32:50;;;;;;;;;2.50;1.50;;;;;56.45;7.61;102180.31;5082785;27;46369;-86
2022/07/06 10:35:17;;;;;;;;;5.50;3.75;;;;;52.65;9.06;102179.81;5075677;27;45488;-87
2022/07/06 10:37:42;;;;;;;;;9.00;6.75;;;;;50.34;10.83;102181.72;5092947;27;45646;-86
2022/07/06 10:42:58;;;;;;;;;4.75;3.00;;;;;50.09;10.83;102172.19;5087245;27;45819;-85
2022/07/06 10:45:26;;;;;;;;;4.50;3.00;;;;;49.47;11.02;102176.31;5076890;27;45493;-86
2022/07/06 10:48:10;;;;;;;;;4.25;3.50;;;;;48.59;11.86;102172.94;5054467;27;45951;-86
2022/07/06 10:50:37;;;;;;;;;2.75;2.75;;;;;47.69;11.94;102174.28;5060979;27;45556;-86
2022/07/06 10:53:02;;;;;;;;;4.00;4.00;;;;;47.38;12.21;102184.59;5077126;27;46320;-85
2022/07/06 10:55:29;;;;;;;;;4.00;3.00;;;;;46.70;13.36;102172.44;5091879;27;45755;-84
2022/07/06 10:57:54;;;;;;;;;5.25;4.50;;;;;45.84;13.36;102180.50;5097509;27;45478;-85
2022/07/06 11:00:20;;;;;;;;;4.75;4.75;;;;;45.77;13.42;102168.06;5097178;27;46242;-85
2022/07/06 11:02:46;;;;;;;;;2.75;2.50;;;;;45.63;12.96;102173.59;5097775;27;45532;-85
2022/07/06 11:05:14;;;;;;;;;3.75;3.75;;;;;45.17;13.95;102181.84;5096458;27;45490;-85
2022/07/06 11:07:53;;;;;;;;;4.00;3.25;;;;;44.76;14.26;102181.59;5074316;27;45460;-85
2022/07/06 11:10:18;;;;;;;;;3.25;3.25;;;;;44.60;14.72;102166.16;5077794;27;45915;-85
2022/07/06 11:12:46;;;;;;;;;4.25;4.25;;;;;44.05;14.57;102170.41;5068510;27;47334;-85
2022/07/06 11:15:12;;;;;;;;;3.50;3.50;;;;;43.68;15.29;102165.44;5097667;27;45604;-84
2022/07/06 11:17:37;;;;;;;;;6.25;4.25;;;;;43.62;15.21;102157.13;5093139;27;45813;-85
2022/07/06 11:20:11;;;;;;;;;8.00;5.50;;;;;43.43;15.55;102164.50;5091814;27;45649;-85
2022/07/06 11:22:38;;;;;;;;;8.25;7.75;;;;;43.27;15.57;102155.44;5069268;27;48466;-86
2022/07/06 11:25:05;;;;;;;;;5.50;5.50;;;;;42.61;16.25;102166.06;5089895;27;45442;-85
2022/07/06 11:27:32;;;;;;;;;10.00;5.00;;;;;42.11;16.15;102147.56;5102193;27;45477;-89
2022/07/06 11:29:58;;;;;;;;;5.00;5.00;;;;;42.00;16.07;102148.69;5084763;27;45915;-88